createdAt,value
2023-02-03T00:02:07.552Z,99316.88
2023-02-03T00:04:34.099Z,99307.66
2023-02-03T00:07:00.649Z,99292.13
2023-02-03T00:09:27.166Z,99293.78
2023-02-03T00:11:56.428Z,99287.97
2023-02-03T00:14:22.927Z,99294.28
2023-02-03T00:16:49.617Z,99285.78
2023-02-03T00:19:17.632Z,99278.91
2023-02-03T00:21:44.483Z,99281.44
2023-02-03T00:24:11.991Z,99277.59
2023-02-03T00:26:44.888Z,99269.88
2023-02-03T00:29:11.781Z,99272.09
2023-02-03T00:31:40.887Z,99266.72
2023-02-03T00:34:07.537Z,99254.50
2023-02-03T00:36:33.980Z,99258.69
2023-02-03T00:39:01.545Z,99244.00
2023-02-03T00:41:34.024Z,99236.84
2023-02-03T00:44:00.554Z,99237.41
2023-02-03T00:46:32.041Z,99241.88
2023-02-03T00:48:58.554Z,99233.34
2023-02-03T00:51:25.106Z,99242.72
2023-02-03T00:53:51.589Z,99245.84
2023-02-03T00:56:18.058Z,99244.16
2023-02-03T00:58:44.517Z,99247.28
2023-02-03T01:01:11.122Z,99245.59
2023-02-03T01:03:37.998Z,99239.31
2023-02-03T01:06:22.507Z,99250.19
2023-02-03T01:08:50.083Z,99244.72
2023-02-03T01:11:24.008Z,99235.66
2023-02-03T01:13:53.774Z,99247.19
2023-02-03T01:16:23.780Z,99244.31
2023-02-03T01:18:51.439Z,99224.38
2023-02-03T01:21:24.156Z,99236.69
2023-02-03T01:23:52.107Z,99229.84
2023-02-03T01:26:22.222Z,99228.06
2023-02-03T01:29:00.155Z,99233.66
2023-02-03T01:31:34.795Z,99233.66
2023-02-03T01:34:01.703Z,99228.41
2023-02-03T01:36:31.602Z,99236.34
2023-02-03T01:38:58.249Z,99246.09
2023-02-03T01:41:29.661Z,99235.34
2023-02-03T01:43:59.636Z,99239.72
2023-02-03T01:46:45.720Z,99240.88
2023-02-03T01:49:33.646Z,99252.22
2023-02-03T01:52:00.456Z,99249.06
2023-02-03T01:54:37.671Z,99255.50
2023-02-03T01:57:31.116Z,99258.25
2023-02-03T02:00:00.522Z,99248.13
2023-02-03T02:02:27.389Z,99237.56
2023-02-03T02:05:04.596Z,99252.03
2023-02-03T02:07:33.570Z,99258.13
2023-02-03T02:10:00.621Z,99264.22
2023-02-03T02:12:27.149Z,99276.50
2023-02-03T02:14:54.437Z,99276.19
2023-02-03T02:17:42.231Z,99284.06
2023-02-03T02:20:37.441Z,99276.66
2023-02-03T02:23:22.545Z,99249.97
2023-02-03T02:26:18.200Z,99239.63
2023-02-03T02:29:17.701Z,99241.59
2023-02-03T02:32:00.181Z,99239.63
2023-02-03T02:35:04.717Z,99244.00
2023-02-03T02:38:03.180Z,99245.03
2023-02-03T02:41:08.380Z,99265.50
2023-02-03T02:43:49.987Z,99241.59
2023-02-03T02:46:26.479Z,99238.72
2023-02-03T02:49:16.616Z,99231.81
2023-02-03T02:51:45.434Z,99229.63
2023-02-03T02:54:20.652Z,99231.47
2023-02-03T02:56:55.249Z,99217.59
2023-02-03T02:59:21.859Z,99203.59
2023-02-03T03:01:48.421Z,99210.78
2023-02-03T03:04:22.023Z,99193.81
2023-02-03T03:06:58.872Z,99194.69
2023-02-03T03:09:36.038Z,99202.75
2023-02-03T03:12:14.561Z,99216.78
2023-02-03T03:14:48.181Z,99211.63
2023-02-03T03:17:25.796Z,99209.19
2023-02-03T03:20:01.394Z,99221.47
2023-02-03T03:22:36.954Z,99202.97
2023-02-03T03:25:29.896Z,99195.06
2023-02-03T03:28:04.865Z,99205.47
2023-02-03T03:30:37.447Z,99194.38
2023-02-03T03:33:06.541Z,99191.63
2023-02-03T03:36:01.467Z,99194.75
2023-02-03T03:38:44.923Z,99215.69
2023-02-03T03:41:40.588Z,99213.41
2023-02-03T03:44:15.075Z,99220.84
2023-02-03T03:46:51.887Z,99230.41
2023-02-03T03:49:23.398Z,99255.47
2023-02-03T03:51:58.337Z,99239.47
2023-02-03T03:54:28.566Z,99235.22
2023-02-03T03:57:02.436Z,99226.09
2023-02-03T03:59:35.859Z,99223.97
2023-02-03T04:02:04.832Z,99226.03
2023-02-03T04:04:36.341Z,99222.91
2023-02-03T04:07:03.217Z,99216.25
2023-02-03T04:09:29.880Z,99215.63
2023-02-03T04:12:02.120Z,99221.75
2023-02-03T04:14:40.721Z,99226.31
2023-02-03T04:17:07.300Z,99243.50
2023-02-03T04:19:33.761Z,99235.88
2023-02-03T04:22:00.208Z,99219.06
2023-02-03T04:24:26.733Z,99206.38
2023-02-03T04:26:53.261Z,99199.94
2023-02-03T04:29:19.712Z,99189.09
2023-02-03T04:31:46.327Z,99198.34
2023-02-03T04:34:12.909Z,99192.44
2023-02-03T04:36:39.428Z,99202.00
2023-02-03T04:39:05.969Z,99187.59
2023-02-03T04:41:32.506Z,99176.81
2023-02-03T04:43:58.985Z,99184.47
2023-02-03T04:46:25.656Z,99181.75
2023-02-03T04:48:52.153Z,99172.69
2023-02-03T04:51:18.843Z,99184.25
2023-02-03T04:53:45.367Z,99191.03
2023-02-03T04:56:11.853Z,99186.03
2023-02-03T05:12:11.480Z,99182.22
2023-02-03T05:14:38.023Z,99189.31
2023-02-03T05:17:04.520Z,99191.16
2023-02-03T05:19:31.001Z,99187.25
2023-02-03T05:21:57.441Z,99179.66
2023-02-03T05:24:23.864Z,99186.88
2023-02-03T05:26:50.318Z,99180.03
2023-02-03T05:29:16.809Z,99187.00
2023-02-03T05:31:43.379Z,99180.88
2023-02-03T05:34:09.989Z,99173.16
2023-02-03T05:36:36.479Z,99184.06
2023-02-03T05:39:03.335Z,99182.13
2023-02-03T05:41:48.525Z,99172.88
2023-02-03T05:44:15.046Z,99194.69
2023-02-03T05:46:41.517Z,99170.31
2023-02-03T05:49:08.210Z,99178.53
2023-02-03T05:51:34.749Z,99176.28
2023-02-03T05:54:01.241Z,99190.06
2023-02-03T05:56:27.836Z,99182.78
2023-02-03T05:58:54.400Z,99184.47
2023-02-03T06:01:20.856Z,99184.84
2023-02-03T06:03:48.558Z,99193.47
2023-02-03T06:06:16.628Z,99193.69
2023-02-03T06:08:44.023Z,99184.13
2023-02-03T06:11:11.804Z,99173.38
2023-02-03T06:13:38.480Z,99180.06
2023-02-03T06:16:05.703Z,99175.84
2023-02-03T06:18:32.206Z,99181.72
2023-02-03T06:20:58.722Z,99183.06
2023-02-03T06:23:25.336Z,99193.28
2023-02-03T06:25:52.698Z,99183.50
2023-02-03T06:28:19.338Z,99191.78
2023-02-03T06:30:49.144Z,99196.53
2023-02-03T06:33:15.643Z,99205.22
2023-02-03T06:35:42.093Z,99197.28
2023-02-03T06:38:08.546Z,99186.19
2023-02-03T06:40:34.999Z,99193.56
2023-02-03T06:43:01.507Z,99197.22
2023-02-03T06:45:28.027Z,99206.31
2023-02-03T06:47:54.555Z,99197.22
2023-02-03T06:50:21.141Z,99195.97
2023-02-03T06:52:50.097Z,99182.56
2023-02-03T06:55:16.639Z,99183.50
2023-02-03T06:57:45.262Z,99187.38
2023-02-03T07:00:15.085Z,99186.38
2023-02-03T07:02:42.961Z,99196.09
2023-02-03T07:05:09.631Z,99204.81
2023-02-03T07:07:36.931Z,99197.66
2023-02-03T07:10:03.632Z,99212.84
2023-02-03T07:12:31.464Z,99198.38
2023-02-03T07:14:57.994Z,99207.50
2023-02-03T07:17:24.445Z,99219.84
2023-02-03T07:19:50.882Z,99194.53
2023-02-03T07:22:17.397Z,99190.22
2023-02-03T07:24:43.884Z,99194.16
2023-02-03T07:27:10.336Z,99201.06
2023-02-03T07:29:36.855Z,99210.00
2023-02-03T07:32:03.683Z,99207.00
2023-02-03T07:34:30.273Z,99215.47
2023-02-03T07:36:57.633Z,99198.69
2023-02-03T07:39:24.177Z,99206.53
2023-02-03T07:41:50.688Z,99208.84
2023-02-03T07:44:17.182Z,99214.47
2023-02-03T07:46:45.458Z,99203.97
2023-02-03T07:49:12.947Z,99200.50
2023-02-03T07:51:40.379Z,99204.06
2023-02-03T07:54:07.527Z,99202.19
2023-02-03T07:56:34.166Z,99209.56
2023-02-03T07:59:00.739Z,99200.09
2023-02-03T08:01:27.666Z,99209.28
2023-02-03T08:03:55.215Z,99206.44
2023-02-03T08:06:22.537Z,99203.81
2023-02-03T08:08:49.094Z,99201.56
2023-02-03T08:11:15.548Z,99194.84
2023-02-03T08:13:42.016Z,99189.72
2023-02-03T08:16:08.673Z,99196.66
2023-02-03T08:18:35.183Z,99186.13
2023-02-03T08:21:03.538Z,99201.34
2023-02-03T08:23:30.637Z,99179.09
2023-02-03T08:25:57.107Z,99191.19
2023-02-03T08:28:23.837Z,99185.03
2023-02-03T08:30:51.179Z,99196.28
2023-02-03T08:33:17.736Z,99205.84
2023-02-03T08:35:49.822Z,99222.28
2023-02-03T08:38:17.407Z,99230.66
2023-02-03T08:40:43.976Z,99228.16
2023-02-03T08:43:11.185Z,99224.47
2023-02-03T08:45:40.474Z,99212.56
2023-02-03T08:48:07.269Z,99232.56
2023-02-03T08:50:33.896Z,99219.06
2023-02-03T08:53:00.436Z,99216.72
2023-02-03T08:55:27.151Z,99215.31
2023-02-03T08:57:53.892Z,99214.25
2023-02-03T09:00:21.040Z,99210.41
2023-02-03T09:02:47.582Z,99213.41
2023-02-03T09:05:15.890Z,99224.06
2023-02-03T09:07:42.454Z,99217.19
2023-02-03T09:10:09.534Z,99207.00
2023-02-03T09:12:36.077Z,99211.53
2023-02-03T09:15:02.745Z,99192.97
2023-02-03T09:17:29.216Z,99211.41
2023-02-03T09:19:55.773Z,99212.00
2023-02-03T09:22:22.272Z,99222.19
2023-02-03T09:24:50.624Z,99226.03
2023-02-03T09:27:17.332Z,99217.66
2023-02-03T09:29:43.872Z,99216.38
2023-02-03T09:32:10.619Z,99215.81
2023-02-03T09:34:39.749Z,99208.16
2023-02-03T09:37:06.206Z,99194.75
2023-02-03T09:39:32.826Z,99200.66
2023-02-03T09:42:19.697Z,99198.03
2023-02-03T09:45:08.710Z,99211.16
2023-02-03T09:47:41.145Z,99203.75
2023-02-03T09:50:19.946Z,99202.47
2023-02-03T09:52:47.934Z,99201.19
2023-02-03T09:55:28.623Z,99210.63
2023-02-03T09:58:12.934Z,99196.66
2023-02-03T10:00:50.512Z,99211.31
2023-02-03T10:03:44.201Z,99201.06
2023-02-03T10:06:38.388Z,99211.91
2023-02-03T10:09:24.365Z,99214.13
2023-02-03T10:12:13.876Z,99213.31
2023-02-03T10:15:00.451Z,99212.38
2023-02-03T10:17:39.099Z,99220.00
2023-02-03T10:20:55.305Z,99217.06
2023-02-03T10:23:33.650Z,99210.78
2023-02-03T10:26:07.498Z,99205.75
2023-02-03T10:28:45.435Z,99208.06
2023-02-03T10:31:21.637Z,99203.81
2023-02-03T10:33:54.593Z,99213.41
2023-02-03T10:36:39.615Z,99203.06
2023-02-03T10:39:37.011Z,99208.66
2023-02-03T10:42:06.450Z,99204.16
2023-02-03T10:44:51.231Z,99195.69
2023-02-03T10:47:24.296Z,99209.56
2023-02-03T10:49:54.299Z,99214.34
2023-02-03T10:52:36.190Z,99217.25
2023-02-03T10:55:30.012Z,99214.97
2023-02-03T10:57:58.212Z,99211.69
2023-02-03T11:00:31.974Z,99218.22
2023-02-03T11:03:27.334Z,99233.03
2023-02-03T11:06:11.484Z,99219.56
2023-02-03T11:08:46.157Z,99232.06
2023-02-03T11:11:24.485Z,99236.03
2023-02-03T11:14:03.975Z,99231.25
2023-02-03T11:16:34.945Z,99234.25
2023-02-03T11:19:10.207Z,99221.56
2023-02-03T11:21:39.505Z,99216.78
2023-02-03T11:24:32.651Z,99209.66
2023-02-03T11:27:09.481Z,99202.50
2023-02-03T11:29:43.301Z,99201.06
2023-02-03T11:32:27.615Z,99180.66
2023-02-03T11:35:07.101Z,99188.44
2023-02-03T11:37:39.291Z,99191.06
2023-02-03T11:40:08.612Z,99193.19
2023-02-03T11:42:42.017Z,99193.13
2023-02-03T11:45:26.000Z,99188.41
2023-02-03T11:48:01.859Z,99185.69
2023-02-03T11:50:43.605Z,99193.25
2023-02-03T11:53:27.464Z,99208.13
2023-02-03T11:56:24.626Z,99208.00
2023-02-03T11:59:08.845Z,99204.47
2023-02-03T12:01:56.749Z,99203.00
2023-02-03T12:05:02.157Z,99202.38
2023-02-03T12:07:47.036Z,99201.47
2023-02-03T12:10:27.418Z,99182.34
2023-02-03T12:13:40.129Z,99208.00
2023-02-03T12:16:50.061Z,99202.50
2023-02-03T12:19:41.584Z,99197.84
2023-02-03T12:22:44.819Z,99202.75
2023-02-03T12:25:58.468Z,99186.84
2023-02-03T12:28:46.538Z,99191.97
2023-02-03T12:31:29.490Z,99183.09
2023-02-03T12:34:30.432Z,99170.56
2023-02-03T12:37:09.505Z,99174.59
2023-02-03T12:39:46.564Z,99183.09
2023-02-03T12:42:26.125Z,99179.91
2023-02-03T12:45:14.613Z,99199.28
2023-02-03T12:48:00.466Z,99209.53
2023-02-03T12:50:45.903Z,99200.94
2023-02-03T12:53:30.869Z,99192.63
2023-02-03T12:56:14.605Z,99186.88
2023-02-03T12:58:57.317Z,99197.41
2023-02-03T13:01:42.875Z,99199.88
2023-02-03T13:04:24.842Z,99212.75
2023-02-03T13:07:09.009Z,99204.31
2023-02-03T13:09:56.958Z,99198.22
2023-02-03T13:12:45.191Z,99201.06
2023-02-03T13:15:39.996Z,99201.06
2023-02-03T13:18:29.460Z,99180.28
2023-02-03T13:20:56.571Z,99178.06
2023-02-03T13:23:24.992Z,99181.91
2023-02-03T13:26:28.493Z,99186.03
2023-02-03T13:29:47.676Z,99184.69
2023-02-03T13:33:20.214Z,99191.88
2023-02-03T13:36:23.320Z,99186.72
2023-02-03T13:39:02.000Z,99185.06
2023-02-03T13:41:54.833Z,99192.53
2023-02-03T13:44:29.539Z,99192.53
2023-02-03T13:47:01.734Z,99190.22
2023-02-03T13:49:36.676Z,99181.78
2023-02-03T13:52:04.279Z,99176.66
2023-02-03T13:54:37.526Z,99188.22
2023-02-03T13:57:22.039Z,99182.41
2023-02-03T13:59:49.687Z,99174.94
2023-02-03T14:02:43.440Z,99188.69
2023-02-03T14:05:41.045Z,99190.00
2023-02-03T14:08:25.843Z,99172.69
2023-02-03T14:12:12.348Z,99166.81
2023-02-03T14:14:38.750Z,99174.97
2023-02-03T14:17:34.385Z,99198.22
2023-02-03T14:20:27.276Z,99187.69
2023-02-03T14:22:58.555Z,99199.13
2023-02-03T14:25:27.933Z,99208.59
2023-02-03T14:28:14.449Z,99218.75
2023-02-03T14:31:06.526Z,99195.34
2023-02-03T14:33:48.029Z,99200.91
2023-02-03T14:36:39.893Z,99214.50
2023-02-03T14:39:18.582Z,99226.56
2023-02-03T14:42:03.053Z,99217.22
2023-02-03T14:44:58.519Z,99205.97
2023-02-03T14:47:34.887Z,99217.28
2023-02-03T14:50:19.707Z,99215.59
2023-02-03T14:53:04.674Z,99225.44
2023-02-03T14:55:52.381Z,99219.69
2023-02-03T14:58:34.656Z,99231.50
2023-02-03T15:01:05.010Z,99238.31
2023-02-03T15:03:31.832Z,99241.56
2023-02-03T15:06:03.403Z,99241.00
2023-02-03T15:08:46.370Z,99242.91
2023-02-03T15:11:30.418Z,99226.56
2023-02-03T15:14:25.108Z,99241.59
2023-02-03T15:17:02.484Z,99246.94
2023-02-03T15:19:49.749Z,99254.00
2023-02-03T15:22:30.393Z,99247.78
2023-02-03T15:25:02.679Z,99237.06
2023-02-03T15:27:32.268Z,99242.81
2023-02-03T15:30:13.914Z,99254.63
2023-02-03T15:32:52.408Z,99254.50
2023-02-03T15:35:20.931Z,99239.53
2023-02-03T15:38:23.332Z,99254.03
2023-02-03T15:40:57.618Z,99270.81
2023-02-03T15:43:31.167Z,99272.69
2023-02-03T15:46:20.852Z,99273.00
2023-02-03T15:48:54.401Z,99294.34
2023-02-03T15:51:38.988Z,99299.09
2023-02-03T15:54:24.769Z,99311.63
2023-02-03T15:57:01.847Z,99325.25
2023-02-03T15:59:46.186Z,99358.50
2023-02-03T16:02:23.150Z,99341.94
2023-02-03T16:04:50.424Z,99356.78
2023-02-03T16:07:30.141Z,99353.59
2023-02-03T16:09:59.763Z,99336.56
2023-02-03T16:12:32.390Z,99333.50
2023-02-03T16:15:01.949Z,99338.28
2023-02-03T16:17:35.007Z,99324.84
2023-02-03T16:20:10.477Z,99327.59
2023-02-03T16:22:44.901Z,99322.28
2023-02-03T16:25:25.564Z,99315.31
2023-02-03T16:28:35.233Z,99324.78
2023-02-03T16:31:32.304Z,99322.41
2023-02-03T16:34:21.417Z,99318.03
2023-02-03T16:37:06.718Z,99316.75
2023-02-03T16:39:52.130Z,99329.09
2023-02-03T16:42:39.388Z,99328.31
2023-02-03T16:45:37.129Z,99313.84
2023-02-03T16:48:22.665Z,99320.22
2023-02-03T16:50:59.643Z,99330.34
2023-02-03T16:53:32.684Z,99334.88
2023-02-03T16:56:04.247Z,99338.28
2023-02-03T16:58:31.825Z,99334.34
2023-02-03T17:01:02.893Z,99346.66
2023-02-03T17:03:30.294Z,99337.34
2023-02-03T17:05:57.613Z,99341.44
2023-02-03T17:08:26.318Z,99342.50
2023-02-03T17:10:53.463Z,99342.47
2023-02-03T17:13:22.530Z,99329.25
2023-02-03T17:15:54.990Z,99311.06
2023-02-03T17:18:22.296Z,99320.59
2023-02-03T17:20:49.017Z,99318.53
2023-02-03T17:23:16.740Z,99330.91
2023-02-03T17:25:49.372Z,99343.84
2023-02-03T17:28:16.365Z,99342.47
2023-02-03T17:30:43.126Z,99357.88
2023-02-03T17:33:12.714Z,99357.31
2023-02-03T17:35:44.704Z,99362.47
2023-02-03T17:38:13.920Z,99370.59
2023-02-03T17:54:27.430Z,99378.41
2023-02-03T17:56:54.036Z,99377.69
2023-02-03T17:59:20.498Z,99381.09
2023-02-03T18:01:47.057Z,99375.09
2023-02-03T18:04:13.661Z,99388.94
2023-02-03T18:06:43.065Z,99394.25
2023-02-03T18:09:10.334Z,99384.53
2023-02-03T18:11:37.858Z,99383.47
2023-02-03T18:14:05.845Z,99392.00
2023-02-03T18:16:35.732Z,99396.13
2023-02-03T18:19:07.164Z,99394.19
2023-02-03T18:21:36.103Z,99407.59
2023-02-03T18:24:05.801Z,99407.28
2023-02-03T18:26:36.330Z,99398.88
2023-02-03T18:29:05.901Z,99417.22
2023-02-03T18:31:33.044Z,99418.13
2023-02-03T18:34:04.456Z,99421.91
2023-02-03T18:36:32.725Z,99423.84
2023-02-03T18:38:59.324Z,99426.56
2023-02-03T18:41:26.815Z,99432.25
2023-02-03T18:43:53.735Z,99446.84
2023-02-03T18:46:25.271Z,99442.81
2023-02-03T18:48:52.150Z,99443.97
2023-02-03T18:51:21.338Z,99441.16
2023-02-03T18:53:49.374Z,99443.22
2023-02-03T18:56:23.417Z,99446.53
2023-02-03T18:58:50.352Z,99451.44
2023-02-03T19:01:30.170Z,99445.13
2023-02-03T19:04:00.520Z,99455.03
2023-02-03T19:06:30.459Z,99462.28
2023-02-03T19:08:58.664Z,99454.19
2023-02-03T19:11:25.813Z,99459.13
2023-02-03T19:13:52.301Z,99458.38
2023-02-03T19:16:19.474Z,99463.47
2023-02-03T19:18:47.297Z,99474.56
2023-02-03T19:21:14.747Z,99472.47
2023-02-03T19:23:42.866Z,99476.97
2023-02-03T19:26:10.411Z,99484.47
2023-02-03T19:28:38.749Z,99492.31
2023-02-03T19:31:09.320Z,99487.75
2023-02-03T19:33:37.253Z,99500.16
2023-02-03T19:36:05.867Z,99500.81
2023-02-03T19:38:32.704Z,99501.97
2023-02-03T19:41:01.485Z,99500.28
2023-02-03T19:43:30.200Z,99515.69
2023-02-03T19:45:56.732Z,99510.38
2023-02-03T19:48:23.276Z,99513.94
2023-02-03T19:50:49.982Z,99516.59
2023-02-03T19:53:18.302Z,99507.94
2023-02-03T19:55:46.413Z,99521.88
2023-02-03T19:58:14.057Z,99505.84
2023-02-03T20:00:42.682Z,99503.09
2023-02-03T20:03:10.028Z,99517.56
2023-02-03T20:05:37.021Z,99522.97
2023-02-03T20:08:04.283Z,99518.53
2023-02-03T20:10:32.401Z,99523.19
2023-02-03T20:12:59.273Z,99529.06
2023-02-03T20:15:26.839Z,99533.03
2023-02-03T20:17:53.501Z,99538.16
2023-02-03T20:20:20.908Z,99531.34
2023-02-03T20:22:48.150Z,99530.09
2023-02-03T20:25:14.779Z,99531.22
2023-02-03T20:27:41.989Z,99533.38
2023-02-03T20:30:11.335Z,99528.78
2023-02-03T20:32:38.148Z,99531.91
2023-02-03T20:35:06.189Z,99527.88
2023-02-03T20:37:35.865Z,99530.09
2023-02-03T20:40:12.198Z,99542.09
2023-02-03T20:42:38.635Z,99552.47
2023-02-03T20:45:14.590Z,99543.50
2023-02-03T20:47:42.280Z,99549.78
2023-02-03T20:50:25.144Z,99538.72
2023-02-03T20:52:55.523Z,99542.38
2023-02-03T20:55:24.157Z,99544.41
2023-02-03T20:57:54.123Z,99537.94
2023-02-03T21:00:25.454Z,99550.06
2023-02-03T21:03:10.871Z,99554.69
2023-02-03T21:05:42.062Z,99569.00
2023-02-03T21:08:20.242Z,99576.16
2023-02-03T21:10:48.319Z,99592.88
2023-02-03T21:13:26.313Z,99578.25
2023-02-03T21:15:59.953Z,99577.53
2023-02-03T21:18:35.506Z,99593.50
2023-02-03T21:21:03.222Z,99583.69
2023-02-03T21:23:48.130Z,99580.81
2023-02-03T21:26:25.669Z,99574.59
2023-02-03T21:28:55.501Z,99575.16
2023-02-03T21:31:29.790Z,99579.00
2023-02-03T21:33:59.770Z,99579.22
2023-02-03T21:36:31.516Z,99590.22
2023-02-03T21:39:00.011Z,99590.97
2023-02-03T21:41:32.857Z,99601.38
2023-02-03T21:44:00.409Z,99602.78
2023-02-03T21:46:29.285Z,99601.63
2023-02-03T21:49:00.736Z,99602.63
2023-02-03T21:51:36.456Z,99599.38
2023-02-03T21:54:32.877Z,99618.41
2023-02-03T21:57:01.125Z,99604.09
2023-02-03T21:59:38.584Z,99612.75
2023-02-03T22:02:55.453Z,99609.22
2023-02-03T22:05:21.987Z,99612.47
2023-02-03T22:07:48.515Z,99602.09
2023-02-03T22:10:15.317Z,99600.97
2023-02-03T22:12:41.837Z,99610.59
2023-02-03T22:15:09.206Z,99616.22
2023-02-03T22:17:35.699Z,99617.41
2023-02-03T22:20:02.202Z,99624.97
2023-02-03T22:22:30.818Z,99626.63
2023-02-03T22:24:57.403Z,99631.84
2023-02-03T22:27:25.416Z,99638.69
2023-02-03T22:29:53.228Z,99641.34
2023-02-03T22:32:19.891Z,99644.50
2023-02-03T22:34:47.143Z,99647.78
2023-02-03T22:37:13.604Z,99651.69
2023-02-03T22:39:40.029Z,99656.00
2023-02-03T22:42:06.628Z,99670.59
2023-02-03T22:44:33.119Z,99670.91
2023-02-03T22:46:59.552Z,99669.88
2023-02-03T22:49:26.056Z,99662.22
2023-02-03T22:51:52.603Z,99667.53
2023-02-03T22:54:19.150Z,99666.50
2023-02-03T22:56:45.646Z,99681.03
2023-02-03T22:59:12.149Z,99684.25
2023-02-03T23:01:38.620Z,99691.41
2023-02-03T23:04:05.258Z,99684.09
2023-02-03T23:06:31.731Z,99700.56
2023-02-03T23:08:58.212Z,99705.72
2023-02-03T23:11:24.826Z,99708.06
2023-02-03T23:13:51.359Z,99725.44
2023-02-03T23:16:17.863Z,99717.53
2023-02-03T23:18:44.452Z,99709.25
2023-02-03T23:21:10.928Z,99726.66
2023-02-03T23:23:37.402Z,99729.28
2023-02-03T23:26:03.938Z,99731.53
2023-02-03T23:28:30.398Z,99723.47
2023-02-03T23:30:56.963Z,99731.47
2023-02-03T23:33:23.586Z,99735.09
2023-02-03T23:35:50.662Z,99738.97
2023-02-03T23:38:18.168Z,99740.47
2023-02-03T23:40:45.300Z,99741.22
2023-02-03T23:43:14.859Z,99747.41
2023-02-03T23:45:41.561Z,99747.19
2023-02-03T23:48:08.451Z,99743.63
2023-02-03T23:50:35.116Z,99742.53
2023-02-03T23:53:01.661Z,99749.72
2023-02-03T23:55:29.021Z,99749.00
2023-02-03T23:57:55.525Z,99748.53
